This demonstration page uses our WeatherBlox Daily Observations layout. Learn more.

38.88101, -77.10428

Hourly Observations for June 1, 2017

Temp ( °F °C ) Dew Point ( °F °C ) Humidity (%) Winds ( mph kmh ) Pressure ( in mb ) Visibility ( mi km ) Precip ( " mm )
12:52 am 00:52 Partly Cloudy 66 18.9 63 17.2 90 90 S 8 13 29.97 1015 10 16.09344 0 0
1:52 am 01:52 Partly Cloudy 64 17.8 62 16.7 93 93 SW 5 7 29.97 1015 10 16.09344 0 0
2:52 am 02:52 Mostly Clear 64 17.8 62 16.7 93 93 SW 3 6 29.97 1015 10 16.09344 0 0
3:52 am 03:52 Clear 63 17.2 62 16.7 97 97 SSW 7 11 29.94 1014 10 16.09344 0 0
4:52 am 04:52 Mostly Cloudy 63 17.2 61 16.1 93 93 Calm 29.97 1015 10 16.09344 0 0
5:52 am 05:52 Cloudy 63 17.2 61 16.1 93 93 SW 5 7 30 1016 10 16.09344 0 0
6:52 am 06:52 Mostly Cloudy 64 17.8 62 16.7 93 93 S 7 11 30 1016 10 16.09344 0 0
7:52 am 07:52 Mostly Cloudy 68 20 59 15 73 73 N 3 6 30 1016 10 16.09344 0 0
8:52 am 08:52 Partly Cloudy 73 22.8 59 15 62 62 Calm 30.03 1017 10 16.09344 0 0
9:52 am 09:52 Partly Cloudy 75 23.9 60 15.6 60 60 ENE 3 6 30 1016 10 16.09344 0 0
10:52 am 10:52 Partly Cloudy 80 26.7 53 11.7 39 39 Calm 30 1016 10 16.09344 0 0
11:52 am 11:52 Mostly Sunny 82 27.8 49 9.4 32 32 WSW 13 20 30 1016 10 16.09344 0 0
12:52 pm 12:52 Partly Cloudy 82 27.8 45 7.2 27 27 W 15 24 30 1016 10 16.09344 0 0
1:52 pm 13:52 Partly Cloudy 83 28.3 49 9.4 31 31 W 12 19 29.97 1015 10 16.09344 0 0
2:52 pm 14:52 Partly Cloudy 82 27.8 50 10 33 33 WNW 16 26 29.94 1014 10 16.09344 0 0
3:52 pm 15:52 Partly Cloudy 84 28.9 50 10 31 31 WNW 12 19 29.94 1014 10 16.09344 0 0
4:52 pm 16:52 Mostly Sunny 82 27.8 51 10.6 34 34 WNW 9 15 29.94 1014 10 16.09344 0 0
5:52 pm 17:52 Mostly Sunny 83 28.3 50 10 32 32 NW 9 15 29.94 1014 10 16.09344 0 0
6:52 pm 18:52 Partly Cloudy 81 27.2 48 8.9 32 32 N 15 24 29.94 1014 10 16.09344 0 0
7:52 pm 19:52 Partly Cloudy 79 26.1 47 8.3 32 32 NW 8 13 29.94 1014 10 16.09344 0 0
8:52 pm 20:52 Partly Cloudy 77 25 46 7.8 33 33 NNW 7 11 29.94 1014 10 16.09344 0 0
9:52 pm 21:52 Partly Cloudy 74 23.3 48 8.9 40 40 N 8 13 29.97 1015 10 16.09344 0 0
10:52 pm 22:52 Mostly Cloudy 73 22.8 50 10 44 44 N 5 7 30 1016 10 16.09344 0 0
11:52 pm 23:52 Partly Cloudy 72 22.2 50 10 46 46 N 3 6 30 1016 10 16.09344 0 0

Powered by AerisWeather